sensor_id;sensor_type;location;lat;lon;timestamp;P1;durP1;ratioP1;P2;durP2;ratioP2
22675;SDS011;12521;43.310;21.876;2022-09-02T00:01:13;6.0;;;5.0;;
22675;SDS011;12521;43.310;21.876;2022-09-02T00:06:07;6.0;;;5.0;;
22675;SDS011;12521;43.310;21.876;2022-09-02T00:10:49;6.0;;;6.0;;
22675;SDS011;12521;43.310;21.876;2022-09-02T00:15:27;6.0;;;6.0;;
22675;SDS011;12521;43.310;21.876;2022-09-02T00:20:06;7.0;;;6.0;;
22675;SDS011;12521;43.310;21.876;2022-09-02T00:24:46;7.0;;;6.0;;
22675;SDS011;12521;43.310;21.876;2022-09-02T00:29:23;7.0;;;6.0;;
22675;SDS011;12521;43.310;21.876;2022-09-02T00:34:05;6.0;;;6.0;;
22675;SDS011;12521;43.310;21.876;2022-09-02T00:38:42;6.0;;;6.0;;
22675;SDS011;12521;43.310;21.876;2022-09-02T00:43:25;6.0;;;5.0;;
22675;SDS011;12521;43.310;21.876;2022-09-02T00:48:27;6.0;;;5.0;;
22675;SDS011;12521;43.310;21.876;2022-09-02T00:53:09;6.0;;;5.0;;
22675;SDS011;12521;43.310;21.876;2022-09-02T00:57:53;6.0;;;5.0;;
22675;SDS011;12521;43.310;21.876;2022-09-02T01:02:48;6.0;;;5.0;;
22675;SDS011;12521;43.310;21.876;2022-09-02T01:07:35;6.0;;;5.0;;
22675;SDS011;12521;43.310;21.876;2022-09-02T01:12:14;6.0;;;4.0;;
22675;SDS011;12521;43.310;21.876;2022-09-02T01:16:55;6.0;;;4.0;;
22675;SDS011;12521;43.310;21.876;2022-09-02T01:21:37;5.0;;;4.0;;
22675;SDS011;12521;43.310;21.876;2022-09-02T01:26:14;5.0;;;4.0;;
22675;SDS011;12521;43.310;21.876;2022-09-02T01:30:53;5.0;;;4.0;;
22675;SDS011;12521;43.310;21.876;2022-09-02T01:35:30;5.0;;;4.0;;
22675;SDS011;12521;43.310;21.876;2022-09-02T01:40:14;5.0;;;5.0;;
22675;SDS011;12521;43.310;21.876;2022-09-02T01:44:54;5.0;;;5.0;;
22675;SDS011;12521;43.310;21.876;2022-09-02T01:49:31;5.0;;;5.0;;
22675;SDS011;12521;43.310;21.876;2022-09-02T01:54:08;5.0;;;4.0;;
22675;SDS011;12521;43.310;21.876;2022-09-02T01:58:46;5.0;;;4.0;;
22675;SDS011;12521;43.310;21.876;2022-09-02T02:03:23;5.0;;;4.0;;
22675;SDS011;12521;43.310;21.876;2022-09-02T02:08:02;5.0;;;4.0;;
22675;SDS011;12521;43.310;21.876;2022-09-02T02:12:42;6.0;;;4.0;;
22675;SDS011;12521;43.310;21.876;2022-09-02T02:17:19;6.0;;;4.0;;
22675;SDS011;12521;43.310;21.876;2022-09-02T02:21:56;6.0;;;5.0;;
22675;SDS011;12521;43.310;21.876;2022-09-02T02:26:36;6.0;;;5.0;;
22675;SDS011;12521;43.310;21.876;2022-09-02T02:31:13;6.0;;;4.0;;
22675;SDS011;12521;43.310;21.876;2022-09-02T02:35:51;6.0;;;4.0;;
22675;SDS011;12521;43.310;21.876;2022-09-02T02:40:29;5.0;;;3.0;;
22675;SDS011;12521;43.310;21.876;2022-09-02T02:45:09;5.0;;;3.0;;
22675;SDS011;12521;43.310;21.876;2022-09-02T02:49:47;5.0;;;3.0;;
22675;SDS011;12521;43.310;21.876;2022-09-02T02:54:25;6.0;;;4.0;;
22675;SDS011;12521;43.310;21.876;2022-09-02T02:59:02;6.0;;;4.0;;
22675;SDS011;12521;43.310;21.876;2022-09-02T03:03:40;6.0;;;5.0;;
22675;SDS011;12521;43.310;21.876;2022-09-02T03:08:19;6.0;;;5.0;;
22675;SDS011;12521;43.310;21.876;2022-09-02T03:12:58;6.0;;;4.0;;
22675;SDS011;12521;43.310;21.876;2022-09-02T03:17:38;6.0;;;4.0;;
22675;SDS011;12521;43.310;21.876;2022-09-02T03:22:15;5.0;;;4.0;;
22675;SDS011;12521;43.310;21.876;2022-09-02T03:26:53;5.0;;;4.0;;
22675;SDS011;12521;43.310;21.876;2022-09-02T03:31:29;4.0;;;4.0;;
22675;SDS011;12521;43.310;21.876;2022-09-02T03:36:07;4.0;;;4.0;;
22675;SDS011;12521;43.310;21.876;2022-09-02T03:40:53;4.0;;;4.0;;
22675;SDS011;12521;43.310;21.876;2022-09-02T03:45:30;4.0;;;4.0;;
22675;SDS011;12521;43.310;21.876;2022-09-02T03:50:07;4.0;;;4.0;;
22675;SDS011;12521;43.310;21.876;2022-09-02T03:54:45;4.0;;;4.0;;
22675;SDS011;12521;43.310;21.876;2022-09-02T03:59:22;4.0;;;4.0;;
22675;SDS011;12521;43.310;21.876;2022-09-02T04:03:59;4.0;;;3.0;;
22675;SDS011;12521;43.310;21.876;2022-09-02T04:08:35;4.0;;;3.0;;
22675;SDS011;12521;43.310;21.876;2022-09-02T04:13:12;5.0;;;4.0;;
22675;SDS011;12521;43.310;21.876;2022-09-02T04:17:49;5.0;;;4.0;;
22675;SDS011;12521;43.310;21.876;2022-09-02T04:22:26;6.0;;;5.0;;
22675;SDS011;12521;43.310;21.876;2022-09-02T04:27:04;6.0;;;5.0;;
22675;SDS011;12521;43.310;21.876;2022-09-02T04:31:41;6.0;;;5.0;;
22675;SDS011;12521;43.310;21.876;2022-09-02T04:36:19;6.0;;;5.0;;
22675;SDS011;12521;43.310;21.876;2022-09-02T04:41:06;6.0;;;5.0;;
22675;SDS011;12521;43.310;21.876;2022-09-02T04:45:57;6.0;;;5.0;;
22675;SDS011;12521;43.310;21.876;2022-09-02T04:50:41;6.0;;;4.0;;
22675;SDS011;12521;43.310;21.876;2022-09-02T04:55:19;6.0;;;4.0;;
22675;SDS011;12521;43.310;21.876;2022-09-02T04:59:56;6.0;;;4.0;;
22675;SDS011;12521;43.310;21.876;2022-09-02T05:04:34;5.0;;;4.0;;
22675;SDS011;12521;43.310;21.876;2022-09-02T05:09:12;5.0;;;4.0;;
22675;SDS011;12521;43.310;21.876;2022-09-02T05:13:50;6.0;;;4.0;;
22675;SDS011;12521;43.310;21.876;2022-09-02T05:18:28;6.0;;;4.0;;
22675;SDS011;12521;43.310;21.876;2022-09-02T05:23:06;6.0;;;5.0;;
22675;SDS011;12521;43.310;21.876;2022-09-02T05:27:43;6.0;;;5.0;;
22675;SDS011;12521;43.310;21.876;2022-09-02T05:32:20;6.0;;;5.0;;
22675;SDS011;12521;43.310;21.876;2022-09-02T05:36:58;6.0;;;5.0;;
22675;SDS011;12521;43.310;21.876;2022-09-02T05:41:37;7.0;;;5.0;;
22675;SDS011;12521;43.310;21.876;2022-09-02T05:46:18;7.0;;;5.0;;
22675;SDS011;12521;43.310;21.876;2022-09-02T05:51:03;6.0;;;4.0;;
22675;SDS011;12521;43.310;21.876;2022-09-02T05:55:41;6.0;;;4.0;;
22675;SDS011;12521;43.310;21.876;2022-09-02T06:00:19;4.0;;;4.0;;
22675;SDS011;12521;43.310;21.876;2022-09-02T06:04:56;4.0;;;4.0;;
22675;SDS011;12521;43.310;21.876;2022-09-02T06:09:33;4.0;;;4.0;;
22675;SDS011;12521;43.310;21.876;2022-09-02T06:14:12;6.0;;;6.0;;
22675;SDS011;12521;43.310;21.876;2022-09-02T06:18:52;6.0;;;6.0;;
22675;SDS011;12521;43.310;21.876;2022-09-02T06:23:29;9.0;;;7.0;;
22675;SDS011;12521;43.310;21.876;2022-09-02T06:28:11;9.0;;;7.0;;
22675;SDS011;12521;43.310;21.876;2022-09-02T06:32:50;8.0;;;6.0;;
22675;SDS011;12521;43.310;21.876;2022-09-02T06:37:27;8.0;;;6.0;;
22675;SDS011;12521;43.310;21.876;2022-09-02T06:42:03;7.0;;;6.0;;
22675;SDS011;12521;43.310;21.876;2022-09-02T06:46:43;7.0;;;6.0;;
22675;SDS011;12521;43.310;21.876;2022-09-02T06:51:30;6.0;;;5.0;;
22675;SDS011;12521;43.310;21.876;2022-09-02T06:56:16;6.0;;;5.0;;
22675;SDS011;12521;43.310;21.876;2022-09-02T07:00:54;5.0;;;4.0;;
22675;SDS011;12521;43.310;21.876;2022-09-02T07:05:31;5.0;;;4.0;;
22675;SDS011;12521;43.310;21.876;2022-09-02T07:10:12;5.0;;;4.0;;
22675;SDS011;12521;43.310;21.876;2022-09-02T07:14:51;5.0;;;4.0;;
22675;SDS011;12521;43.310;21.876;2022-09-02T07:19:29;5.0;;;4.0;;
22675;SDS011;12521;43.310;21.876;2022-09-02T07:24:09;5.0;;;4.0;;
22675;SDS011;12521;43.310;21.876;2022-09-02T07:28:54;5.0;;;4.0;;
22675;SDS011;12521;43.310;21.876;2022-09-02T07:33:32;4.0;;;4.0;;
22675;SDS011;12521;43.310;21.876;2022-09-02T07:38:11;4.0;;;4.0;;
22675;SDS011;12521;43.310;21.876;2022-09-02T07:42:50;4.0;;;3.0;;
22675;SDS011;12521;43.310;21.876;2022-09-02T07:47:29;4.0;;;3.0;;
22675;SDS011;12521;43.310;21.876;2022-09-02T07:52:07;4.0;;;4.0;;
22675;SDS011;12521;43.310;21.876;2022-09-02T07:56:44;4.0;;;4.0;;
22675;SDS011;12521;43.310;21.876;2022-09-02T08:01:23;4.0;;;4.0;;
22675;SDS011;12521;43.310;21.876;2022-09-02T08:06:02;4.0;;;4.0;;
22675;SDS011;12521;43.310;21.876;2022-09-02T08:10:42;4.0;;;4.0;;
22675;SDS011;12521;43.310;21.876;2022-09-02T08:15:20;4.0;;;4.0;;
22675;SDS011;12521;43.310;21.876;2022-09-02T08:20:07;4.0;;;4.0;;
22675;SDS011;12521;43.310;21.876;2022-09-02T08:24:50;5.0;;;4.0;;
22675;SDS011;12521;43.310;21.876;2022-09-02T08:29:27;5.0;;;4.0;;
22675;SDS011;12521;43.310;21.876;2022-09-02T08:34:04;5.0;;;4.0;;
22675;SDS011;12521;43.310;21.876;2022-09-02T08:38:42;5.0;;;4.0;;
22675;SDS011;12521;43.310;21.876;2022-09-02T08:43:29;5.0;;;4.0;;
22675;SDS011;12521;43.310;21.876;2022-09-02T08:48:26;5.0;;;4.0;;
22675;SDS011;12521;43.310;21.876;2022-09-02T08:53:34;6.0;;;4.0;;
22675;SDS011;12521;43.310;21.876;2022-09-02T08:58:36;6.0;;;4.0;;
22675;SDS011;12521;43.310;21.876;2022-09-02T09:03:29;7.0;;;5.0;;
22675;SDS011;12521;43.310;21.876;2022-09-02T09:08:45;7.0;;;5.0;;
22675;SDS011;12521;43.310;21.876;2022-09-02T09:13:54;6.0;;;4.0;;
22675;SDS011;12521;43.310;21.876;2022-09-02T09:19:07;6.0;;;4.0;;
22675;SDS011;12521;43.310;21.876;2022-09-02T09:23:52;4.0;;;4.0;;
22675;SDS011;12521;43.310;21.876;2022-09-02T09:28:37;4.0;;;4.0;;
22675;SDS011;12521;43.310;21.876;2022-09-02T09:33:20;4.0;;;4.0;;
22675;SDS011;12521;43.310;21.876;2022-09-02T09:37:58;4.0;;;4.0;;
22675;SDS011;12521;43.310;21.876;2022-09-02T09:42:55;4.0;;;3.0;;
22675;SDS011;12521;43.310;21.876;2022-09-02T09:48:16;4.0;;;3.0;;
22675;SDS011;12521;43.310;21.876;2022-09-02T09:53:14;4.0;;;3.0;;
22675;SDS011;12521;43.310;21.876;2022-09-02T09:58:08;4.0;;;3.0;;
22675;SDS011;12521;43.310;21.876;2022-09-02T10:02:50;4.0;;;3.0;;
22675;SDS011;12521;43.310;21.876;2022-09-02T10:07:42;4.0;;;3.0;;
22675;SDS011;12521;43.310;21.876;2022-09-02T10:12:40;4.0;;;3.0;;
22675;SDS011;12521;43.310;21.876;2022-09-02T10:17:35;4.0;;;3.0;;
22675;SDS011;12521;43.310;21.876;2022-09-02T10:23:11;3.0;;;3.0;;
22675;SDS011;12521;43.310;21.876;2022-09-02T10:28:59;3.0;;;3.0;;
22675;SDS011;12521;43.310;21.876;2022-09-02T10:34:43;4.0;;;3.0;;
22675;SDS011;12521;43.310;21.876;2022-09-02T10:40:12;4.0;;;3.0;;
22675;SDS011;12521;43.310;21.876;2022-09-02T10:45:29;4.0;;;3.0;;
22675;SDS011;12521;43.310;21.876;2022-09-02T10:50:32;4.0;;;3.0;;
22675;SDS011;12521;43.310;21.876;2022-09-02T10:55:38;4.0;;;3.0;;
22675;SDS011;12521;43.310;21.876;2022-09-02T11:00:43;3.0;;;3.0;;
22675;SDS011;12521;43.310;21.876;2022-09-02T11:05:33;3.0;;;3.0;;
22675;SDS011;12521;43.310;21.876;2022-09-02T11:10:29;4.0;;;4.0;;
22675;SDS011;12521;43.310;21.876;2022-09-02T11:15:38;4.0;;;4.0;;
22675;SDS011;12521;43.310;21.876;2022-09-02T11:20:45;4.0;;;4.0;;
22675;SDS011;12521;43.310;21.876;2022-09-02T11:26:07;4.0;;;4.0;;
22675;SDS011;12521;43.310;21.876;2022-09-02T11:31:14;4.0;;;4.0;;
22675;SDS011;12521;43.310;21.876;2022-09-02T11:36:16;4.0;;;4.0;;
22675;SDS011;12521;43.310;21.876;2022-09-02T11:41:00;4.0;;;4.0;;
22675;SDS011;12521;43.310;21.876;2022-09-02T11:46:17;4.0;;;4.0;;
22675;SDS011;12521;43.310;21.876;2022-09-02T11:51:45;4.0;;;4.0;;
22675;SDS011;12521;43.310;21.876;2022-09-02T11:56:59;4.0;;;4.0;;
22675;SDS011;12521;43.310;21.876;2022-09-02T12:01:49;4.0;;;3.0;;
22675;SDS011;12521;43.310;21.876;2022-09-02T12:06:30;4.0;;;3.0;;
22675;SDS011;12521;43.310;21.876;2022-09-02T12:11:08;4.0;;;3.0;;
22675;SDS011;12521;43.310;21.876;2022-09-02T12:16:41;4.0;;;3.0;;
22675;SDS011;12521;43.310;21.876;2022-09-02T12:22:22;5.0;;;3.0;;
22675;SDS011;12521;43.310;21.876;2022-09-02T12:27:19;5.0;;;3.0;;
22675;SDS011;12521;43.310;21.876;2022-09-02T12:32:11;6.0;;;4.0;;
22675;SDS011;12521;43.310;21.876;2022-09-02T12:37:49;6.0;;;4.0;;
22675;SDS011;12521;43.310;21.876;2022-09-02T12:43:03;6.0;;;4.0;;
22675;SDS011;12521;43.310;21.876;2022-09-02T12:48:27;6.0;;;4.0;;
22675;SDS011;12521;43.310;21.876;2022-09-02T12:54:07;5.0;;;4.0;;
22675;SDS011;12521;43.310;21.876;2022-09-02T12:58:47;5.0;;;4.0;;
22675;SDS011;12521;43.310;21.876;2022-09-02T13:03:43;4.0;;;4.0;;
22675;SDS011;12521;43.310;21.876;2022-09-02T13:09:36;4.0;;;4.0;;
22675;SDS011;12521;43.310;21.876;2022-09-02T13:16:09;4.0;;;4.0;;
22675;SDS011;12521;43.310;21.876;2022-09-02T13:22:00;4.0;;;3.0;;
22675;SDS011;12521;43.310;21.876;2022-09-02T13:28:25;4.0;;;3.0;;
22675;SDS011;12521;43.310;21.876;2022-09-02T13:34:41;4.0;;;4.0;;
22675;SDS011;12521;43.310;21.876;2022-09-02T13:39:37;4.0;;;4.0;;
22675;SDS011;12521;43.310;21.876;2022-09-02T13:44:19;5.0;;;4.0;;
22675;SDS011;12521;43.310;21.876;2022-09-02T13:49:03;5.0;;;4.0;;
22675;SDS011;12521;43.310;21.876;2022-09-02T13:53:53;6.0;;;4.0;;
22675;SDS011;12521;43.310;21.876;2022-09-02T13:58:35;6.0;;;4.0;;
22675;SDS011;12521;43.310;21.876;2022-09-02T14:03:29;6.0;;;3.0;;
22675;SDS011;12521;43.310;21.876;2022-09-02T14:08:10;6.0;;;3.0;;
22675;SDS011;12521;43.310;21.876;2022-09-02T14:13:02;8.0;;;4.0;;
22675;SDS011;12521;43.310;21.876;2022-09-02T14:17:45;8.0;;;4.0;;
22675;SDS011;12521;43.310;21.876;2022-09-02T14:22:51;9.0;;;4.0;;
22675;SDS011;12521;43.310;21.876;2022-09-02T14:27:33;9.0;;;4.0;;
22675;SDS011;12521;43.310;21.876;2022-09-02T14:32:11;10.0;;;6.0;;
22675;SDS011;12521;43.310;21.876;2022-09-02T14:36:58;10.0;;;6.0;;
22675;SDS011;12521;43.310;21.876;2022-09-02T14:41:35;11.0;;;7.0;;
22675;SDS011;12521;43.310;21.876;2022-09-02T14:46:26;11.0;;;7.0;;
22675;SDS011;12521;43.310;21.876;2022-09-02T14:51:13;12.0;;;8.0;;
22675;SDS011;12521;43.310;21.876;2022-09-02T14:55:54;12.0;;;8.0;;
22675;SDS011;12521;43.310;21.876;2022-09-02T15:00:34;12.0;;;8.0;;
22675;SDS011;12521;43.310;21.876;2022-09-02T15:05:12;12.0;;;8.0;;
22675;SDS011;12521;43.310;21.876;2022-09-02T15:09:50;12.0;;;8.0;;
22675;SDS011;12521;43.310;21.876;2022-09-02T15:14:29;11.0;;;8.0;;
22675;SDS011;12521;43.310;21.876;2022-09-02T15:19:06;11.0;;;8.0;;
22675;SDS011;12521;43.310;21.876;2022-09-02T15:23:43;10.0;;;9.0;;
22675;SDS011;12521;43.310;21.876;2022-09-02T15:28:20;10.0;;;9.0;;
22675;SDS011;12521;43.310;21.876;2022-09-02T15:33:00;10.0;;;8.0;;
22675;SDS011;12521;43.310;21.876;2022-09-02T15:37:47;10.0;;;8.0;;
22675;SDS011;12521;43.310;21.876;2022-09-02T15:42:25;10.0;;;8.0;;
22675;SDS011;12521;43.310;21.876;2022-09-02T15:47:03;10.0;;;8.0;;
22675;SDS011;12521;43.310;21.876;2022-09-02T15:51:41;12.0;;;9.0;;
22675;SDS011;12521;43.310;21.876;2022-09-02T15:56:26;12.0;;;9.0;;
22675;SDS011;12521;43.310;21.876;2022-09-02T16:01:16;13.0;;;10.0;;
22675;SDS011;12521;43.310;21.876;2022-09-02T16:05:59;13.0;;;10.0;;
22675;SDS011;12521;43.310;21.876;2022-09-02T16:10:40;13.0;;;10.0;;
22675;SDS011;12521;43.310;21.876;2022-09-02T16:15:17;13.0;;;10.0;;
22675;SDS011;12521;43.310;21.876;2022-09-02T16:19:54;13.0;;;10.0;;
22675;SDS011;12521;43.310;21.876;2022-09-02T16:24:31;13.0;;;10.0;;
22675;SDS011;12521;43.310;21.876;2022-09-02T16:29:09;13.0;;;10.0;;
22675;SDS011;12521;43.310;21.876;2022-09-02T16:33:54;12.0;;;10.0;;
22675;SDS011;12521;43.310;21.876;2022-09-02T16:38:41;12.0;;;10.0;;
22675;SDS011;12521;43.310;21.876;2022-09-02T16:43:18;12.0;;;11.0;;
22675;SDS011;12521;43.310;21.876;2022-09-02T16:48:00;12.0;;;11.0;;
22675;SDS011;12521;43.310;21.876;2022-09-02T16:52:38;14.0;;;12.0;;
22675;SDS011;12521;43.310;21.876;2022-09-02T16:57:14;14.0;;;12.0;;
22675;SDS011;12521;43.310;21.876;2022-09-02T17:01:51;16.0;;;12.0;;
22675;SDS011;12521;43.310;21.876;2022-09-02T17:06:28;16.0;;;12.0;;
22675;SDS011;12521;43.310;21.876;2022-09-02T17:11:10;16.0;;;12.0;;
22675;SDS011;12521;43.310;21.876;2022-09-02T17:15:57;16.0;;;12.0;;
22675;SDS011;12521;43.310;21.876;2022-09-02T17:20:34;16.0;;;12.0;;
22675;SDS011;12521;43.310;21.876;2022-09-02T17:25:10;15.0;;;12.0;;
22675;SDS011;12521;43.310;21.876;2022-09-02T17:29:48;15.0;;;12.0;;
22675;SDS011;12521;43.310;21.876;2022-09-02T17:34:24;14.0;;;12.0;;
22675;SDS011;12521;43.310;21.876;2022-09-02T17:39:02;14.0;;;12.0;;
22675;SDS011;12521;43.310;21.876;2022-09-02T17:43:52;14.0;;;13.0;;
22675;SDS011;12521;43.310;21.876;2022-09-02T17:48:31;14.0;;;13.0;;
22675;SDS011;12521;43.310;21.876;2022-09-02T17:53:08;15.0;;;12.0;;
22675;SDS011;12521;43.310;21.876;2022-09-02T17:57:48;15.0;;;12.0;;
22675;SDS011;12521;43.310;21.876;2022-09-02T18:03:01;16.0;;;11.0;;
22675;SDS011;12521;43.310;21.876;2022-09-02T18:08:53;16.0;;;11.0;;
22675;SDS011;12521;43.310;21.876;2022-09-02T18:13:45;17.0;;;12.0;;
22675;SDS011;12521;43.310;21.876;2022-09-02T18:19:24;17.0;;;12.0;;
22675;SDS011;12521;43.310;21.876;2022-09-02T18:24:57;18.0;;;13.0;;
22675;SDS011;12521;43.310;21.876;2022-09-02T18:30:37;18.0;;;13.0;;
22675;SDS011;12521;43.310;21.876;2022-09-02T18:36:26;18.0;;;14.0;;
22675;SDS011;12521;43.310;21.876;2022-09-02T18:42:13;19.0;;;16.0;;
22675;SDS011;12521;43.310;21.876;2022-09-02T18:47:53;19.0;;;16.0;;
22675;SDS011;12521;43.310;21.876;2022-09-02T18:52:47;25.0;;;18.0;;
22675;SDS011;12521;43.310;21.876;2022-09-02T18:57:36;25.0;;;18.0;;
22675;SDS011;12521;43.310;21.876;2022-09-02T19:02:49;31.0;;;21.0;;
22675;SDS011;12521;43.310;21.876;2022-09-02T19:07:35;31.0;;;21.0;;
22675;SDS011;12521;43.310;21.876;2022-09-02T19:12:16;30.0;;;21.0;;
22675;SDS011;12521;43.310;21.876;2022-09-02T19:16:53;30.0;;;21.0;;
22675;SDS011;12521;43.310;21.876;2022-09-02T19:21:34;30.0;;;21.0;;
22675;SDS011;12521;43.310;21.876;2022-09-02T19:26:26;30.0;;;21.0;;
22675;SDS011;12521;43.310;21.876;2022-09-02T19:31:04;32.0;;;23.0;;
22675;SDS011;12521;43.310;21.876;2022-09-02T19:35:45;32.0;;;23.0;;
22675;SDS011;12521;43.310;21.876;2022-09-02T19:40:27;32.0;;;23.0;;
22675;SDS011;12521;43.310;21.876;2022-09-02T19:45:08;35.0;;;25.0;;
22675;SDS011;12521;43.310;21.876;2022-09-02T19:49:45;35.0;;;25.0;;
22675;SDS011;12521;43.310;21.876;2022-09-02T19:54:21;36.0;;;25.0;;
22675;SDS011;12521;43.310;21.876;2022-09-02T19:58:57;36.0;;;25.0;;
22675;SDS011;12521;43.310;21.876;2022-09-02T20:03:34;38.0;;;25.0;;
22675;SDS011;12521;43.310;21.876;2022-09-02T20:08:10;38.0;;;25.0;;
22675;SDS011;12521;43.310;21.876;2022-09-02T20:12:47;39.0;;;26.0;;
22675;SDS011;12521;43.310;21.876;2022-09-02T20:17:23;39.0;;;26.0;;
22675;SDS011;12521;43.310;21.876;2022-09-02T20:22:03;40.0;;;27.0;;
22675;SDS011;12521;43.310;21.876;2022-09-02T20:26:44;40.0;;;27.0;;
22675;SDS011;12521;43.310;21.876;2022-09-02T20:32:08;38.0;;;26.0;;
22675;SDS011;12521;43.310;21.876;2022-09-02T20:37:34;38.0;;;26.0;;
22675;SDS011;12521;43.310;21.876;2022-09-02T20:43:30;35.0;;;24.0;;
22675;SDS011;12521;43.310;21.876;2022-09-02T20:49:34;35.0;;;24.0;;
22675;SDS011;12521;43.310;21.876;2022-09-02T20:55:24;34.0;;;23.0;;
22675;SDS011;12521;43.310;21.876;2022-09-02T21:00:37;34.0;;;23.0;;
22675;SDS011;12521;43.310;21.876;2022-09-02T21:05:51;34.0;;;22.0;;
22675;SDS011;12521;43.310;21.876;2022-09-02T21:10:36;34.0;;;22.0;;
22675;SDS011;12521;43.310;21.876;2022-09-02T21:15:34;34.0;;;22.0;;
22675;SDS011;12521;43.310;21.876;2022-09-02T21:20:41;34.0;;;22.0;;
22675;SDS011;12521;43.310;21.876;2022-09-02T21:25:55;35.0;;;22.0;;
22675;SDS011;12521;43.310;21.876;2022-09-02T21:31:05;33.0;;;22.0;;
22675;SDS011;12521;43.310;21.876;2022-09-02T21:36:22;33.0;;;22.0;;
22675;SDS011;12521;43.310;21.876;2022-09-02T21:41:07;31.0;;;22.0;;
22675;SDS011;12521;43.310;21.876;2022-09-02T21:46:36;31.0;;;22.0;;
22675;SDS011;12521;43.310;21.876;2022-09-02T21:52:00;30.0;;;20.0;;
22675;SDS011;12521;43.310;21.876;2022-09-02T21:57:33;30.0;;;20.0;;
22675;SDS011;12521;43.310;21.876;2022-09-02T22:03:32;28.0;;;18.0;;
22675;SDS011;12521;43.310;21.876;2022-09-02T22:08:39;28.0;;;18.0;;
22675;SDS011;12521;43.310;21.876;2022-09-02T22:13:47;32.0;;;20.0;;
22675;SDS011;12521;43.310;21.876;2022-09-02T22:18:27;32.0;;;20.0;;
22675;SDS011;12521;43.310;21.876;2022-09-02T22:23:19;35.0;;;21.0;;
22675;SDS011;12521;43.310;21.876;2022-09-02T22:28:01;35.0;;;21.0;;
22675;SDS011;12521;43.310;21.876;2022-09-02T22:32:57;34.0;;;22.0;;
22675;SDS011;12521;43.310;21.876;2022-09-02T22:37:48;34.0;;;22.0;;
22675;SDS011;12521;43.310;21.876;2022-09-02T22:42:44;33.0;;;22.0;;
22675;SDS011;12521;43.310;21.876;2022-09-02T22:47:39;33.0;;;22.0;;
22675;SDS011;12521;43.310;21.876;2022-09-02T22:52:37;32.0;;;21.0;;
22675;SDS011;12521;43.310;21.876;2022-09-02T22:57:25;32.0;;;21.0;;
22675;SDS011;12521;43.310;21.876;2022-09-02T23:03:28;30.0;;;20.0;;
22675;SDS011;12521;43.310;21.876;2022-09-02T23:09:25;30.0;;;20.0;;
22675;SDS011;12521;43.310;21.876;2022-09-02T23:14:06;31.0;;;21.0;;
22675;SDS011;12521;43.310;21.876;2022-09-02T23:19:42;31.0;;;21.0;;
22675;SDS011;12521;43.310;21.876;2022-09-02T23:25:19;32.0;;;22.0;;
22675;SDS011;12521;43.310;21.876;2022-09-02T23:31:07;28.0;;;20.0;;
22675;SDS011;12521;43.310;21.876;2022-09-02T23:37:19;28.0;;;20.0;;
22675;SDS011;12521;43.310;21.876;2022-09-02T23:43:21;25.0;;;19.0;;
22675;SDS011;12521;43.310;21.876;2022-09-02T23:48:03;25.0;;;19.0;;
22675;SDS011;12521;43.310;21.876;2022-09-02T23:53:33;26.0;;;18.0;;
22675;SDS011;12521;43.310;21.876;2022-09-02T23:59:13;26.0;;;18.0;;
